Time;durP1;ratioP1;P1;durP2;ratioP2;P2;SDS_P1;SDS_P2;PMS_P1;PMS_P2;Temp;Humidity;BMP_temperature;BMP_pressure;BME280_temperature;BME280_humidity;BME280_pressure;Samples;Min_cycle;Max_cycle;Signal;HPM_P1;HPM_P2
2023/01/01 00:00:05;;;;;;;25.73;13.65;;;;;;;;;;4886196;29;20104;-87
2023/01/01 00:02:32;;;;;;;16.75;10.45;;;;;;;;;;4886708;29;20087;-86
2023/01/01 00:04:58;;;;;;;16.70;10.25;;;;;;;;;;4886163;29;20092;-86
2023/01/01 00:07:24;;;;;;;20.02;9.70;;;;;;;;;;4886267;29;20052;-87
2023/01/01 00:12:35;;;;;;;21.88;9.98;;;;;;;;;;4888484;29;20508;-86
2023/01/01 00:15:01;;;;;;;26.05;10.77;;;;;;;;;;4901091;29;20094;-87
2023/01/01 00:17:29;;;;;;;17.27;9.40;;;;;;;;;;4885435;29;20044;-87
2023/01/01 00:19:55;;;;;;;13.57;7.55;;;;;;;;;;4886020;29;20091;-86
2023/01/01 00:22:21;;;;;;;22.60;8.25;;;;;;;;;;4901718;29;20127;-87
2023/01/01 00:24:47;;;;;;;12.93;8.63;;;;;;;;;;4870028;29;20048;-87
2023/01/01 00:27:13;;;;;;;15.48;7.97;;;;;;;;;;4901023;29;20059;-87
2023/01/01 00:29:39;;;;;;;16.08;8.55;;;;;;;;;;4917775;29;20063;-86
2023/01/01 00:32:05;;;;;;;20.63;8.90;;;;;;;;;;4885525;29;20048;-87
2023/01/01 00:34:31;;;;;;;18.20;9.05;;;;;;;;;;4901192;29;20063;-87
2023/01/01 00:36:57;;;;;;;17.15;9.25;;;;;;;;;;4885232;29;20052;-87
2023/01/01 00:39:23;;;;;;;20.05;9.38;;;;;;;;;;4900711;29;20056;-86
2023/01/01 00:41:49;;;;;;;20.45;8.82;;;;;;;;;;4885087;29;20051;-86
2023/01/01 00:44:15;;;;;;;16.65;10.00;;;;;;;;;;4900864;29;20568;-87
2023/01/01 00:46:41;;;;;;;20.15;11.05;;;;;;;;;;4900431;29;20086;-87
2023/01/01 00:49:07;;;;;;;14.80;8.25;;;;;;;;;;4900467;29;20086;-86
2023/01/01 00:51:34;;;;;;;21.63;10.63;;;;;;;;;;4900541;29;20524;-88
2023/01/01 00:54:00;;;;;;;21.25;10.20;;;;;;;;;;4900654;29;20060;-88
2023/01/01 00:56:26;;;;;;;17.42;10.27;;;;;;;;;;4884924;29;20489;-88
2023/01/01 00:58:52;;;;;;;16.50;12.52;;;;;;;;;;4884846;29;20560;-89
2023/01/01 01:01:18;;;;;;;29.65;16.85;;;;;;;;;;4885754;29;20453;-88
2023/01/01 01:03:44;;;;;;;33.58;20.23;;;;;;;;;;4885152;29;20437;-89
2023/01/01 01:06:14;;;;;;;29.55;20.92;;;;;;;;;;4884774;29;20134;-88
2023/01/01 01:08:41;;;;;;;26.35;16.60;;;;;;;;;;4884721;29;20052;-88
2023/01/01 01:11:14;;;;;;;46.28;28.52;;;;;;;;;;4884667;29;20108;-89
2023/01/01 01:13:40;;;;;;;60.85;40.22;;;;;;;;;;4900255;29;20055;-88
2023/01/01 01:16:18;;;;;;;51.00;29.15;;;13.20;99.90;;;;;;4900402;29;20044;-88
2023/01/01 01:18:45;;;;;;;43.20;23.45;;;;;;;;;;4884542;29;20059;-89
2023/01/01 01:21:14;;;;;;;33.08;19.45;;;;;;;;;;4900122;29;20051;-89
2023/01/01 01:23:40;;;;;;;41.17;23.88;;;;;;;;;;4900035;29;20044;-89
2023/01/01 01:26:15;;;;;;;29.25;20.48;;;13.40;99.90;;;;;;4869018;29;20589;-89
2023/01/01 01:28:42;;;;;;;38.75;21.90;;;13.50;99.90;;;;;;4884522;29;20125;-89
2023/01/01 01:31:08;;;;;;;38.85;23.20;;;;;;;;;;4900234;29;20112;-89
2023/01/01 01:33:34;;;;;;;36.78;24.25;;;;;;;;;;4884317;29;20055;-89
2023/01/01 01:36:01;;;;;;;40.08;27.38;;;13.40;99.90;;;;;;4900059;29;20087;-90
2023/01/01 01:38:27;;;;;;;52.45;33.10;;;;;;;;;;4884416;29;20048;-89
2023/01/01 01:40:54;;;;;;;50.03;32.20;;;;;;;;;;4899912;29;20044;-89
2023/01/01 01:43:23;;;;;;;50.88;35.08;;;;;;;;;;4899932;29;20060;-88
2023/01/01 01:45:50;;;;;;;56.22;32.70;;;;;;;;;;4884658;29;20083;-88
2023/01/01 01:48:16;;;;;;;44.72;28.98;;;;;;;;;;4868895;29;20584;-88
2023/01/01 01:50:46;;;;;;;51.55;32.60;;;12.60;99.90;;;;;;4884318;29;20055;-86
2023/01/01 01:53:17;;;;;;;50.00;30.65;;;;;;;;;;4899781;29;20059;-86
2023/01/01 01:55:47;;;;;;;55.45;32.38;;;12.60;99.90;;;;;;4884424;29;20143;-86
2023/01/01 01:58:14;;;;;;;49.55;32.63;;;;;;;;;;4899580;29;20409;-86
2023/01/01 02:00:40;;;;;;;54.17;34.17;;;;;;;;;;4900064;29;20536;-86
2023/01/01 02:03:06;;;;;;;48.15;30.10;;;;;;;;;;4899658;29;20059;-86
2023/01/01 02:05:33;;;;;;;53.15;35.42;;;12.40;99.90;;;;;;4900426;29;20048;-86
2023/01/01 02:08:01;;;;;;;53.28;34.63;;;12.40;99.90;;;;;;4884063;29;20060;-86
2023/01/01 02:10:27;;;;;;;43.25;29.10;;;;;;;;;;4902365;29;20135;-86
2023/01/01 02:12:53;;;;;;;41.75;29.63;;;;;;;;;;4872307;29;20044;-86
2023/01/01 02:15:22;;;;;;;57.58;36.72;;;12.40;99.90;;;;;;4872394;29;20568;-86
2023/01/01 02:17:54;;;;;;;43.85;30.30;;;;;;;;;;4887534;29;20064;-86
2023/01/01 02:20:20;;;;;;;54.05;33.70;;;;;;;;;;4887649;29;20056;-86
2023/01/01 02:23:07;;;;;;;48.70;31.98;;;12.60;99.90;;;;;;4887664;29;20048;-86
2023/01/01 02:25:55;;;;;;;43.22;29.55;;;12.50;99.90;;;;;;4887690;29;20059;-86
2023/01/01 02:28:30;;;;;;;53.97;34.88;;;;;;;;;;4887358;29;20067;-86
2023/01/01 02:30:56;;;;;;;53.15;30.05;;;;;;;;;;4903031;29;20536;-86
2023/01/01 02:33:25;;;;;;;47.22;29.75;;;12.30;99.90;;;;;;4887492;29;20060;-86
2023/01/01 02:35:57;;;;;;;50.00;33.45;;;12.50;99.90;;;;;;4872335;29;20052;-87
2023/01/01 02:38:29;;;;;;;50.50;32.78;;;;;;;;;;4887336;29;20146;-88
2023/01/01 02:40:57;;;;;;;45.83;29.70;;;;;;;;;;4903215;29;20087;-88
2023/01/01 02:43:23;;;;;;;53.83;33.15;;;;;;;;;;4902855;29;20051;-87
2023/01/01 02:45:50;;;;;;;47.95;27.73;;;;;;;;;;4887412;29;20052;-87
2023/01/01 02:48:34;;;;;;;52.05;33.50;;;;;;;;;;4887455;29;20088;-88
2023/01/01 02:51:10;;;;;;;48.13;28.30;;;12.30;99.90;;;;;;4903051;29;20079;-89
2023/01/01 02:53:39;;;;;;;39.67;26.88;;;;;;;;;;4902563;29;20059;-88
2023/01/01 02:56:17;;;;;;;45.65;28.70;;;12.10;99.90;;;;;;4902624;29;20059;-89
2023/01/01 03:02:11;;;;;;;40.97;26.10;;;;;;;;;;4902454;29;20425;-88
2023/01/01 03:04:45;;;;;;;39.85;25.95;;;;;;;;;;4902797;29;20441;-89
2023/01/01 03:07:20;;;;;;;47.88;27.63;;;;;;;;;;4902489;29;20100;-88
2023/01/01 03:09:47;;;;;;;44.78;25.38;;;;;;;;;;4902855;29;20084;-88
2023/01/01 03:12:50;;;;;;;45.15;26.58;;;11.80;99.90;;;;;;4886795;29;20056;-85
2023/01/01 03:15:41;;;;;;;41.90;22.90;;;11.80;99.90;;;;;;4902286;29;20135;-86
2023/01/01 03:18:32;;;;;;;31.60;16.52;;;11.90;99.90;;;;;;4902022;29;20096;-85
2023/01/01 03:21:00;;;;;;;30.15;15.48;;;;;;;;;;4901257;29;20417;-85
2023/01/01 03:23:34;;;;;;;29.20;17.15;;;11.90;99.90;;;;;;4902393;29;20048;-85
2023/01/01 03:26:08;;;;;;;29.20;13.93;;;11.90;99.90;;;;;;4902201;29;20064;-85
2023/01/01 03:28:39;;;;;;;20.23;12.38;;;11.90;99.90;;;;;;4902172;29;20067;-85
2023/01/01 03:31:05;;;;;;;16.63;9.32;;;11.80;99.90;;;;;;4902077;29;20063;-85
2023/01/01 03:33:43;;;;;;;20.38;9.75;;;;;;;;;;4902001;29;20048;-85
2023/01/01 03:36:11;;;;;;;18.15;8.45;;;;;;;;;;4886435;29;20466;-86
2023/01/01 03:38:46;;;;;;;13.75;8.02;;;11.80;99.90;;;;;;4886443;29;20413;-85
2023/01/01 03:41:32;;;;;;;14.32;8.32;;;11.80;99.90;;;;;;4901845;29;20062;-85
2023/01/01 03:44:01;;;;;;;11.55;5.88;;;;;;;;;;4901745;29;20080;-85
2023/01/01 03:46:29;;;;;;;15.13;6.43;;;11.60;99.90;;;;;;4901731;29;20052;-85
2023/01/01 03:48:55;;;;;;;10.20;5.82;;;;;;;;;;4901675;29;20516;-85
2023/01/01 03:51:37;;;;;;;14.45;6.97;;;;;;;;;;4901683;29;20059;-86
2023/01/01 03:54:11;;;;;;;15.18;7.78;;;11.80;99.90;;;;;;4901456;29;20064;-85
2023/01/01 03:56:44;;;;;;;18.05;8.18;;;11.50;99.90;;;;;;4885892;29;20128;-89
2023/01/01 03:59:18;;;;;;;19.65;7.65;;;11.70;99.90;;;;;;4886050;29;20091;-89
2023/01/01 04:01:48;;;;;;;15.57;5.67;;;11.60;99.90;;;;;;4901496;29;20533;-89
2023/01/01 04:04:15;;;;;;;10.50;5.88;;;;;;;;;;4901525;29;20888;-89
2023/01/01 04:06:41;;;;;;;11.30;5.95;;;;;;;;;;4870497;29;20048;-89
2023/01/01 04:09:11;;;;;;;11.27;6.18;;;;;;;;;;4885660;29;20048;-90
2023/01/01 04:14:29;;;;;;;11.52;5.38;;;;;;;;;;4901056;29;20052;-88
2023/01/01 04:16:56;;;;;;;13.70;5.05;;;11.60;99.90;;;;;;4885510;29;20125;-88
2023/01/01 04:19:22;;;;;;;10.20;5.68;;;;;;;;;;4901144;29;20064;-89
2023/01/01 04:21:48;;;;;;;9.18;4.38;;;;;;;;;;4901330;29;20494;-89
2023/01/01 04:24:14;;;;;;;7.03;3.40;;;;;;;;;;4885613;29;20612;-88
2023/01/01 04:26:40;;;;;;;12.63;3.42;;;;;;;;;;4901067;29;20489;-86
2023/01/01 04:29:06;;;;;;;9.07;2.92;;;;;;;;;;4901004;29;20060;-87
2023/01/01 04:31:36;;;;;;;7.50;2.50;;;;;;;;;;4900906;29;20059;-88
2023/01/01 04:34:02;;;;;;;5.50;2.60;;;;;;;;;;4900847;29;20056;-87
2023/01/01 04:36:28;;;;;;;7.75;2.67;;;;;;;;;;4869780;29;20552;-88
2023/01/01 04:38:54;;;;;;;10.00;4.10;;;;;;;;;;4900778;29;20052;-88
2023/01/01 04:41:20;;;;;;;7.18;2.78;;;;;;;;;;4900877;29;20048;-88
2023/01/01 04:43:49;;;;;;;6.80;3.13;;;;;;;;;;4885199;29;20056;-88
2023/01/01 04:46:16;;;;;;;10.95;3.15;;;;;;;;;;4870158;29;20465;-87
2023/01/01 04:48:43;;;;;;;16.00;4.43;;;12.00;99.90;;;;;;4884945;29;20091;-88
2023/01/01 04:51:10;;;;;;;14.05;4.15;;;12.10;99.90;;;;;;4900586;29;20107;-87
2023/01/01 04:53:36;;;;;;;20.17;5.32;;;;;;;;;;4884617;29;20047;-87
2023/01/01 04:56:07;;;;;;;13.00;4.78;;;;;;;;;;4885030;29;20060;-87
2023/01/01 04:58:33;;;;;;;13.60;4.05;;;11.80;99.90;;;;;;4900548;29;20083;-88
2023/01/01 05:01:00;;;;;;;21.50;4.78;;;;;;;;;;4869668;29;20064;-88
2023/01/01 05:03:26;;;;;;;15.27;3.70;;;;;;;;;;4885544;29;20051;-87
2023/01/01 05:06:06;;;;;;;11.65;3.85;;;11.70;99.90;;;;;;4900364;29;20130;-87
2023/01/01 05:08:34;;;;;;;16.75;4.63;;;12.00;99.90;;;;;;4900357;29;20055;-88
2023/01/01 05:11:01;;;;;;;11.55;4.10;;;;;;;;;;4884620;29;20119;-88
2023/01/01 05:13:27;;;;;;;13.02;3.22;;;;;;;;;;4884917;29;20052;-88
2023/01/01 05:15:53;;;;;;;18.70;4.68;;;;;;;;;;4900356;29;20052;-88
2023/01/01 05:18:19;;;;;;;7.03;3.45;;;;;;;;;;4900204;29;20052;-89
2023/01/01 05:20:45;;;;;;;9.43;2.78;;;;;;;;;;4900167;29;20044;-89
2023/01/01 05:23:12;;;;;;;10.32;2.92;;;;;;;;;;4900513;29;20149;-88
2023/01/01 05:25:38;;;;;;;12.10;3.25;;;;;;;;;;4900040;29;20166;-89
2023/01/01 05:28:04;;;;;;;14.32;3.15;;;;;;;;;;4884958;29;20090;-89
2023/01/01 05:30:30;;;;;;;9.43;2.67;;;;;;;;;;4900022;29;20063;-88
2023/01/01 05:32:56;;;;;;;9.30;2.85;;;;;;;;;;4900480;29;20048;-88
2023/01/01 05:35:22;;;;;;;14.60;3.08;;;;;;;;;;4884608;29;20135;-88
2023/01/01 05:37:50;;;;;;;11.38;3.15;;;;;;;;;;4884292;29;20056;-88
2023/01/01 05:40:16;;;;;;;13.20;3.60;;;;;;;;;;4884550;29;20064;-88
2023/01/01 05:42:42;;;;;;;6.07;2.47;;;;;;;;;;4884413;29;20055;-88
2023/01/01 05:45:08;;;;;;;5.90;2.13;;;;;;;;;;4904241;29;20056;-88
2023/01/01 05:47:34;;;;;;;8.85;2.15;;;;;;;;;;4890774;29;20079;-87
2023/01/01 05:50:00;;;;;;;7.53;2.28;;;;;;;;;;4891008;29;20071;-89
2023/01/01 05:52:26;;;;;;;5.93;2.70;;;;;;;;;;4906214;29;20079;-89
2023/01/01 05:54:52;;;;;;;4.95;1.75;;;;;;;;;;4890488;29;20112;-89
2023/01/01 05:57:18;;;;;;;6.03;1.92;;;;;;;;;;4890757;29;20391;-88
2023/01/01 05:59:44;;;;;;;6.43;2.53;;;;;;;;;;4906405;29;20149;-89
2023/01/01 06:02:10;;;;;;;5.28;2.30;;;;;;;;;;4875418;29;20083;-89
2023/01/01 06:04:36;;;;;;;7.40;2.85;;;;;;;;;;4890810;29;20520;-88
2023/01/01 06:07:03;;;;;;;9.10;2.45;;;;;;;;;;4906154;29;20063;-89
2023/01/01 06:09:29;;;;;;;4.95;2.38;;;;;;;;;;4874878;29;20543;-87
2023/01/01 06:11:55;;;;;;;12.40;2.40;;;;;;;;;;4906042;29;20055;-87
2023/01/01 06:14:21;;;;;;;4.28;2.15;;;;;;;;;;4905844;29;20421;-87
2023/01/01 06:16:47;;;;;;;6.78;2.17;;;;;;;;;;4890563;29;20127;-87
2023/01/01 06:19:13;;;;;;;5.35;1.90;;;;;;;;;;4905952;29;20536;-87
2023/01/01 06:21:39;;;;;;;7.78;2.10;;;;;;;;;;4875208;29;20127;-87
2023/01/01 06:24:05;;;;;;;6.57;2.50;;;;;;;;;;4874825;29;20420;-87
2023/01/01 06:26:32;;;;;;;11.80;2.75;;;11.50;99.90;;;;;;4890646;29;20060;-87
2023/01/01 06:28:59;;;;;;;3.50;1.67;;;11.40;99.90;;;;;;4905881;29;20052;-87
2023/01/01 06:31:25;;;;;;;7.57;1.77;;;;;;;;;;4890174;29;20063;-87
2023/01/01 06:33:52;;;;;;;10.00;2.00;;;;;;;;;;4890203;29;20059;-88
2023/01/01 06:36:19;;;;;;;4.20;1.88;;;11.40;99.90;;;;;;4890523;29;20060;-87
2023/01/01 06:38:46;;;;;;;7.07;2.92;;;;;;;;;;4890225;29;20062;-87
2023/01/01 06:41:18;;;;;;;6.82;1.77;;;11.20;99.90;;;;;;4905637;29;20052;-87
2023/01/01 06:43:44;;;;;;;4.82;1.85;;;;;;;;;;4890054;29;20536;-89
2023/01/01 06:46:22;;;;;;;15.98;2.92;;;11.20;99.90;;;;;;4874907;29;20055;-89
2023/01/01 06:48:49;;;;;;;5.28;2.80;;;;;;;;;;4890061;29;20060;-89
2023/01/01 06:51:16;;;;;;;5.07;2.10;;;;;;;;;;4905615;29;20559;-89
2023/01/01 06:53:43;;;;;;;9.95;1.65;;;;;;;;;;4905906;29;20095;-88
2023/01/01 06:56:09;;;;;;;10.20;3.15;;;;;;;;;;4871888;29;20173;-89
2023/01/01 06:58:35;;;;;;;7.55;2.38;;;;;;;;;;4887234;29;20064;-89
2023/01/01 07:01:15;;;;;;;8.25;2.45;;;11.20;99.90;;;;;;4903079;29;20084;-89
2023/01/01 07:03:41;;;;;;;9.27;2.38;;;;;;;;;;4887105;29;20052;-89
2023/01/01 07:06:08;;;;;;;12.15;3.25;;;;;;;;;;4902869;29;20112;-88
2023/01/01 07:08:34;;;;;;;20.27;3.95;;;;;;;;;;4902439;29;20060;-89
2023/01/01 07:11:01;;;;;;;16.23;3.90;;;;;;;;;;4871477;29;20100;-89
2023/01/01 07:13:28;;;;;;;33.67;4.13;;;;;;;;;;4902625;29;20052;-88
2023/01/01 07:15:54;;;;;;;13.65;3.05;;;;;;;;;;4887516;29;20572;-89
2023/01/01 07:18:21;;;;;;;12.52;3.17;;;;;;;;;;4886232;29;20054;-89
2023/01/01 07:20:51;;;;;;;14.90;3.15;;;;;;;;;;4886976;29;20063;-90
2023/01/01 07:23:17;;;;;;;10.70;2.88;;;;;;;;;;4886734;29;20510;-89
2023/01/01 07:25:43;;;;;;;12.75;2.42;;;;;;;;;;4887026;29;20048;-88
2023/01/01 07:28:09;;;;;;;10.38;2.83;;;;;;;;;;4902179;29;20112;-89
2023/01/01 07:30:35;;;;;;;13.32;3.30;;;;;;;;;;4871590;29;20492;-89
2023/01/01 07:33:01;;;;;;;17.42;4.07;;;;;;;;;;4886789;29;20577;-89
2023/01/01 07:35:27;;;;;;;10.60;3.90;;;;;;;;;;4902281;29;20135;-90
2023/01/01 07:37:53;;;;;;;13.57;3.42;;;;;;;;;;4886552;29;20501;-89
2023/01/01 07:40:19;;;;;;;12.93;3.03;;;;;;;;;;4902454;29;20048;-89
2023/01/01 07:42:45;;;;;;;14.75;3.08;;;;;;;;;;4886382;29;20513;-88
2023/01/01 07:45:12;;;;;;;14.98;3.53;;;;;;;;;;4902322;29;20078;-90
2023/01/01 07:47:38;;;;;;;19.48;3.88;;;;;;;;;;4901821;29;20052;-89
2023/01/01 07:50:05;;;;;;;12.30;2.70;;;10.70;99.90;;;;;;4886074;29;20091;-90
2023/01/01 07:52:31;;;;;;;11.43;2.40;;;;;;;;;;4870625;29;20059;-87
2023/01/01 07:54:57;;;;;;;17.17;3.85;;;;;;;;;;4870838;29;20056;-87
2023/01/01 07:57:23;;;;;;;17.25;3.95;;;;;;;;;;4901498;29;20183;-87
2023/01/01 07:59:49;;;;;;;20.35;3.35;;;;;;;;;;4885875;29;20063;-87
2023/01/01 08:02:15;;;;;;;15.40;3.53;;;;;;;;;;4870788;29;20056;-87
2023/01/01 08:04:41;;;;;;;20.55;3.55;;;;;;;;;;4886018;29;20148;-87
2023/01/01 08:07:07;;;;;;;13.82;3.72;;;;;;;;;;4885689;29;20099;-87
2023/01/01 08:09:33;;;;;;;11.88;3.50;;;;;;;;;;4885912;29;20063;-87
2023/01/01 08:11:59;;;;;;;11.77;3.13;;;;;;;;;;4901318;29;20059;-87
2023/01/01 08:14:25;;;;;;;11.07;3.53;;;;;;;;;;4870294;29;20102;-86
2023/01/01 08:16:51;;;;;;;11.93;4.25;;;;;;;;;;4885843;29;20056;-87
2023/01/01 08:19:17;;;;;;;22.02;4.72;;;;;;;;;;4885634;29;20056;-87
2023/01/01 08:21:43;;;;;;;12.18;4.25;;;;;;;;;;4886131;29;20394;-87
2023/01/01 08:24:09;;;;;;;15.63;4.03;;;;;;;;;;4870211;29;20052;-87
2023/01/01 08:26:36;;;;;;;15.50;4.13;;;;;;;;;;4886207;29;20052;-91
2023/01/01 08:29:03;;;;;;;16.98;3.60;;;;;;;;;;4902423;29;20070;-89
2023/01/01 08:31:30;;;;;;;19.40;4.22;;;;;;;;;;4886382;29;20052;-91
2023/01/01 08:33:56;;;;;;;19.50;3.70;;;;;;;;;;4886654;29;20122;-90
2023/01/01 08:36:22;;;;;;;11.18;3.25;;;;;;;;;;4887297;29;20052;-90
2023/01/01 08:38:48;;;;;;;14.93;3.45;;;;;;;;;;4886211;29;20089;-89
2023/01/01 08:41:15;;;;;;;21.50;4.57;;;;;;;;;;4871440;29;20059;-89
2023/01/01 08:43:41;;;;;;;15.63;4.07;;;;;;;;;;4871442;29;20056;-89
2023/01/01 08:46:07;;;;;;;15.80;3.30;;;;;;;;;;4901829;29;20044;-90
2023/01/01 08:48:33;;;;;;;17.95;4.57;;;;;;;;;;4887173;29;20051;-90
2023/01/01 08:51:00;;;;;;;19.67;4.30;;;;;;;;;;4886938;29;20045;-89
2023/01/01 08:53:27;;;;;;;14.75;3.92;;;;;;;;;;4901893;29;20052;-90
2023/01/01 08:55:57;;;;;;;21.55;4.45;;;;;;;;;;4885069;29;20047;-90
2023/01/01 08:58:23;;;;;;;20.60;4.03;;;;;;;;;;4886269;29;20048;-89
2023/01/01 09:00:49;;;;;;;13.35;3.53;;;;;;;;;;4918514;29;20052;-89
2023/01/01 09:03:15;;;;;;;10.38;3.42;;;;;;;;;;4886140;29;20473;-89
2023/01/01 09:05:44;;;;;;;24.95;4.25;;;;;;;;;;4886143;29;20557;-90
2023/01/01 09:08:11;;;;;;;14.98;4.50;;;;;;;;;;4886039;29;20048;-89
2023/01/01 09:10:37;;;;;;;20.35;3.83;;;;;;;;;;4885556;29;20177;-89
2023/01/01 09:13:04;;;;;;;23.05;4.85;;;;;;;;;;4885467;29;20111;-89
2023/01/01 09:15:30;;;;;;;16.65;3.63;;;;;;;;;;4901057;29;20067;-89
2023/01/01 09:17:59;;;;;;;20.17;4.50;;;;;;;;;;4901124;29;20052;-89
2023/01/01 09:20:25;;;;;;;19.13;4.28;;;;;;;;;;4917787;29;20086;-89
2023/01/01 09:22:51;;;;;;;16.77;5.05;;;;;;;;;;4885749;29;20130;-89
2023/01/01 09:25:17;;;;;;;33.38;4.68;;;;;;;;;;4869860;29;20545;-89
2023/01/01 09:27:43;;;;;;;22.00;4.15;;;;;;;;;;4869348;29;20140;-89
2023/01/01 09:30:13;;;;;;;21.23;4.15;;;;;;;;;;4869424;29;20052;-90
2023/01/01 09:32:39;;;;;;;17.30;3.58;;;;;;;;;;4900712;29;20092;-89
2023/01/01 09:35:06;;;;;;;15.65;3.35;;;;;;;;;;4884713;29;20540;-87
2023/01/01 09:37:33;;;;;;;17.35;3.97;;;;;;;;;;4884670;29;20095;-87
2023/01/01 09:39:59;;;;;;;27.92;5.18;;;;;;;;;;4884503;29;20454;-88
2023/01/01 09:42:25;;;;;;;14.82;4.25;;;;;;;;;;4868939;29;20135;-87
2023/01/01 09:45:04;;;;;;;19.10;5.72;;;;;;;;;;4900014;29;20102;-87
2023/01/01 09:47:34;;;;;;;19.27;5.18;;;;;;;;;;4884536;29;20067;-87
2023/01/01 09:50:02;;;;;;;19.38;5.00;;;;;;;;;;4900154;29;20056;-87
2023/01/01 09:52:35;;;;;;;24.50;4.78;;;;;;;;;;4900990;29;20052;-87
2023/01/01 09:55:03;;;;;;;14.57;4.32;;;;;;;;;;4884006;29;20048;-87
2023/01/01 09:57:31;;;;;;;19.42;4.22;;;;;;;;;;4900228;29;20063;-87
2023/01/01 10:00:01;;;;;;;19.75;5.47;;;;;;;;;;4899788;29;20048;-87
2023/01/01 10:02:27;;;;;;;11.77;4.53;;;;;;;;;;4884597;29;20044;-87
2023/01/01 10:04:59;;;;;;;18.52;3.50;;;;;;;;;;4899823;29;20056;-87
2023/01/01 10:07:44;;;;;;;21.80;4.68;;;;;;;;;;4900499;29;20048;-87
2023/01/01 10:10:29;;;;;;;21.00;4.50;;;;;;;;;;4884351;29;20052;-87
2023/01/01 10:13:19;;;;;;;16.10;4.10;;;;;;;;;;4884127;29;20521;-88
2023/01/01 10:15:52;;;;;;;25.60;5.43;;;;;;;;;;4899653;29;20059;-86
2023/01/01 10:18:24;;;;;;;20.50;4.63;;;;;;;;;;4899934;29;20086;-87
2023/01/01 10:21:04;;;;;;;19.05;4.20;;;;;;;;;;4900376;29;20490;-87
2023/01/01 10:23:34;;;;;;;17.83;4.38;;;;;;;;;;4884772;29;20048;-87
2023/01/01 10:26:07;;;;;;;6.53;2.65;;;;;;;;;;4899885;29;20052;-86
2023/01/01 10:28:39;;;;;;;16.75;3.75;;;;;;;;;;4899891;29;20409;-87
2023/01/01 10:31:16;;;;;;;14.45;4.28;;;;;;;;;;4886427;29;20513;-87
2023/01/01 10:33:43;;;;;;;23.17;6.40;;;;;;;;;;4903254;29;20409;-87
2023/01/01 10:36:15;;;;;;;21.08;4.13;;;;;;;;;;4888408;29;20052;-87
2023/01/01 10:38:41;;;;;;;20.17;4.20;;;;;;;;;;4887630;29;20052;-87
2023/01/01 10:41:09;;;;;;;18.40;3.78;;;;;;;;;;4872368;29;20056;-87
2023/01/01 10:43:35;;;;;;;13.70;3.40;;;;;;;;;;4903358;29;20055;-87
2023/01/01 10:46:02;;;;;;;14.07;3.17;;;;;;;;;;4903255;29;20048;-87
2023/01/01 10:48:29;;;;;;;16.75;3.92;;;;;;;;;;4903268;29;20048;-87
2023/01/01 10:51:00;;;;;;;11.10;3.53;;;;;;;;;;4903012;29;20122;-87
2023/01/01 10:53:30;;;;;;;20.92;3.80;;;;;;;;;;4888068;29;20106;-86
2023/01/01 10:56:01;;;;;;;20.30;3.90;;;;;;;;;;4887528;29;20099;-87
2023/01/01 10:58:37;;;;;;;22.30;3.88;;;;;;;;;;4887485;29;20528;-87
2023/01/01 11:01:04;;;;;;;15.60;3.65;;;;;;;;;;4887859;29;20071;-87
2023/01/01 11:03:30;;;;;;;16.83;3.30;;;;;;;;;;4903468;29;20442;-87
2023/01/01 11:06:00;;;;;;;18.00;3.78;;;;;;;;;;4887954;29;20059;-88
2023/01/01 11:08:27;;;;;;;20.08;2.97;;;;;;;;;;4887186;29;20048;-87
2023/01/01 11:10:55;;;;;;;26.63;4.53;;;;;;;;;;4902559;29;20059;-87
2023/01/01 11:13:21;;;;;;;13.48;3.72;;;;;;;;;;4886929;29;20048;-87
2023/01/01 11:15:47;;;;;;;17.58;3.72;;;;;;;;;;4871575;29;20056;-87
2023/01/01 11:18:21;;;;;;;15.45;3.13;;;;;;;;;;4886738;29;20131;-87
2023/01/01 11:20:55;;;;;;;16.98;3.08;;;;;;;;;;4886831;29;20056;-87
2023/01/01 11:23:29;;;;;;;17.73;3.67;;;;;;;;;;4902142;29;20531;-86
2023/01/01 11:25:59;;;;;;;15.07;3.42;;;;;;;;;;4886768;29;20056;-88
2023/01/01 11:28:25;;;;;;;14.20;3.35;;;;;;;;;;4902700;29;20383;-87
2023/01/01 11:31:04;;;;;;;16.95;3.72;;;;;;;;;;4902227;29;20409;-87
2023/01/01 11:33:31;;;;;;;11.35;3.67;;;;;;;;;;4902352;29;20133;-87
2023/01/01 11:35:57;;;;;;;11.85;2.78;;;;;;;;;;4918938;29;20078;-88
2023/01/01 11:38:24;;;;;;;12.05;2.05;;;;;;;;;;4886942;29;20044;-87
2023/01/01 11:40:52;;;;;;;11.27;2.78;;;;;;;;;;4902026;29;20064;-88
2023/01/01 11:43:27;;;;;;;13.63;3.65;;;;;;;;;;4885515;29;20056;-88
2023/01/01 11:45:54;;;;;;;19.13;3.17;;;;;;;;;;4901656;29;20592;-88
2023/01/01 11:48:26;;;;;;;22.35;3.50;;;;;;;;;;4901615;29;20429;-88
2023/01/01 11:50:57;;;;;;;16.95;2.90;;;;;;;;;;4886019;29;20091;-87
2023/01/01 11:53:23;;;;;;;8.90;3.47;;;;;;;;;;4902053;29;20095;-87
2023/01/01 11:56:01;;;;;;;44.15;4.97;;;;;;;;;;4885820;29;20507;-87
2023/01/01 11:58:27;;;;;;;23.20;3.58;;;;;;;;;;4886115;29;20115;-87
2023/01/01 12:00:55;;;;;;;15.02;3.05;;;;;;;;;;4885925;29;20058;-87
2023/01/01 12:03:30;;;;;;;14.45;2.63;;;;;;;;;;4901787;29;20067;-87
2023/01/01 12:06:14;;;;;;;15.52;3.20;;;;;;;;;;4886230;29;20090;-87
2023/01/01 12:08:59;;;;;;;14.77;3.38;;;;;;;;;;4885775;29;20060;-87
2023/01/01 12:11:28;;;;;;;11.43;2.75;;;;;;;;;;4885771;29;20516;-87
2023/01/01 12:14:15;;;;;;;8.55;2.63;;;;;;;;;;4885686;29;20056;-87
2023/01/01 12:16:55;;;;;;;8.55;2.65;;;;;;;;;;4901238;29;20063;-87
2023/01/01 12:19:32;;;;;;;18.45;3.58;;;;;;;;;;4885559;29;20501;-87
2023/01/01 12:21:59;;;;;;;10.13;2.78;;;;;;;;;;4901165;29;20135;-87
2023/01/01 12:24:35;;;;;;;15.68;3.72;;;;;;;;;;4901612;29;20048;-87
2023/01/01 12:27:16;;;;;;;6.88;2.92;;;;;;;;;;4901052;29;20092;-87
2023/01/01 12:29:51;;;;;;;16.88;3.47;;;;;;;;;;4886302;29;20453;-87
2023/01/01 12:32:17;;;;;;;11.90;3.25;;;;;;;;;;4885476;29;20048;-88
2023/01/01 12:34:52;;;;;;;16.45;3.17;;;;;;;;;;4901490;29;20143;-87
2023/01/01 12:37:55;;;;;;;10.52;2.85;;;11.30;99.90;;;;;;4886078;29;20067;-87
2023/01/01 12:40:31;;;;;;;15.95;3.40;;;;;;;;;;4900995;29;20147;-87
2023/01/01 12:43:05;;;;;;;12.25;3.60;;;;;;;;;;4885979;29;20059;-87
2023/01/01 12:45:42;;;;;;;18.65;2.97;;;;;;;;;;4901730;29;20052;-87
2023/01/01 12:48:29;;;;;;;15.23;3.72;;;;;;;;;;4885289;29;20044;-88
2023/01/01 12:51:15;;;;;;;13.00;2.80;;;;;;;;;;4876201;29;20058;-88
2023/01/01 12:54:00;;;;;;;14.45;5.05;;;11.80;99.90;;;;;;4883755;29;20048;-88
2023/01/01 12:56:35;;;;;;;14.40;4.05;;;;;;;;;;4885755;29;20557;-88
2023/01/01 12:59:24;;;;;;;20.25;9.60;;;;;;;;;;4885256;29;20060;-87
2023/01/01 13:01:54;;;;;;;23.50;11.07;;;;;;;;;;4847709;29;20139;-87
2023/01/01 13:04:24;;;;;;;14.20;3.72;;;;;;;;;;4885321;29;20151;-88
2023/01/01 13:07:03;;;;;;;18.13;4.32;;;;;;;;;;4885059;29;20080;-88
2023/01/01 13:09:33;;;;;;;12.25;3.60;;;;;;;;;;4885431;29;20186;-87
2023/01/01 13:12:12;;;;;;;11.02;3.40;;;;;;;;;;4885526;29;20375;-88
2023/01/01 13:14:39;;;;;;;7.80;2.85;;;;;;;;;;4885123;29;20055;-89
2023/01/01 13:17:16;;;;;;;22.23;4.40;;;;;;;;;;4884778;29;20052;-89
2023/01/01 13:19:43;;;;;;;13.88;3.35;;;;;;;;;;4900764;29;20115;-89
2023/01/01 13:22:27;;;;;;;13.15;3.25;;;;;;;;;;4885249;29;20048;-89
2023/01/01 13:25:12;;;;;;;17.20;3.50;;;;;;;;;;4885287;29;20135;-89
2023/01/01 13:28:01;;;;;;;5.68;2.70;;;;;;;;;;4901305;29;20127;-89
2023/01/01 13:30:37;;;;;;;14.48;3.47;;;;;;;;;;4884750;29;20048;-90
2023/01/01 13:33:16;;;;;;;14.32;3.42;;;;;;;;;;4900377;29;20127;-89
2023/01/01 13:35:43;;;;;;;11.00;2.95;;;;;;;;;;4900099;29;20095;-89
2023/01/01 13:38:46;;;;;;;18.13;4.18;;;11.70;99.90;;;;;;4885040;29;20157;-89
2023/01/01 13:41:25;;;;;;;18.02;4.18;;;;;;;;;;4869282;29;20406;-89
2023/01/01 13:43:52;;;;;;;13.00;2.97;;;;;;;;;;4900335;29;20099;-89
2023/01/01 13:46:22;;;;;;;8.10;2.88;;;;;;;;;;4885044;29;20050;-89
2023/01/01 13:48:52;;;;;;;12.90;3.40;;;;;;;;;;4884541;29;20063;-89
2023/01/01 13:51:26;;;;;;;10.27;3.45;;;;;;;;;;4884303;29;20429;-89
2023/01/01 13:53:52;;;;;;;10.88;3.00;;;;;;;;;;4899801;29;20059;-87
2023/01/01 13:56:37;;;;;;;19.95;3.95;;;;;;;;;;4884742;29;20048;-87
2023/01/01 13:59:12;;;;;;;23.20;3.20;;;;;;;;;;4884216;29;20048;-88
2023/01/01 14:02:00;;;;;;;15.23;3.35;;;;;;;;;;4884185;29;20142;-88
2023/01/01 14:04:35;;;;;;;15.65;3.28;;;;;;;;;;4899947;29;20063;-88
2023/01/01 14:07:06;;;;;;;10.77;3.95;;;;;;;;;;4887639;29;20052;-87
2023/01/01 14:09:32;;;;;;;18.50;4.55;;;;;;;;;;4903471;29;20056;-88
2023/01/01 14:12:07;;;;;;;20.10;4.03;;;;;;;;;;4903684;29;20052;-88
2023/01/01 14:14:35;;;;;;;14.27;3.30;;;;;;;;;;4903686;29;20064;-88
2023/01/01 14:17:02;;;;;;;14.50;3.85;;;;;;;;;;4872472;29;20497;-88
2023/01/01 14:19:28;;;;;;;17.70;3.80;;;;;;;;;;4888751;29;20091;-88
2023/01/01 14:21:55;;;;;;;15.10;3.38;;;;;;;;;;4888070;29;20473;-87
2023/01/01 14:24:23;;;;;;;17.58;4.03;;;;;;;;;;4888108;29;20052;-88
2023/01/01 14:26:49;;;;;;;18.98;3.55;;;;;;;;;;4887838;29;20159;-87
2023/01/01 14:29:18;;;;;;;11.75;3.53;;;;;;;;;;4887538;29;20056;-88
2023/01/01 14:31:45;;;;;;;12.15;3.05;;;;;;;;;;4903880;29;20048;-88
2023/01/01 14:34:20;;;;;;;11.15;2.83;;;;;;;;;;4903155;29;20078;-88
2023/01/01 14:36:57;;;;;;;16.42;4.30;;;;;;;;;;4887816;29;20123;-88